Time;durP1;ratioP1;P1;durP2;ratioP2;P2;SDS_P1;SDS_P2;PMS_P1;PMS_P2;Temp;Humidity;BMP_temperature;BMP_pressure;BME280_temperature;BME280_humidity;BME280_pressure;Samples;Min_cycle;Max_cycle;Signal;HPM_P1;HPM_P2
2022/01/06 00:05:02;;;;;;;;;;;;;;;3.24;78.07;94495.00;5093521;28;675;-46
2022/01/06 00:07:29;;;;;;;;;;;;;;;3.06;77.98;94486.88;5093451;28;1909;-46
2022/01/06 00:09:55;;;;;;;;;;;;;;;3.09;78.41;94483.13;5093512;28;995;-46
2022/01/06 00:12:27;;;;;;;;;;;;;;;2.82;77.71;94487.16;5093102;28;1054;-46
2022/01/06 00:15:02;;;;;;;;;;;;;;;2.74;78.28;94477.25;5093179;28;1020;-46
2022/01/06 00:25:30;;;;;;;;;;;;;;;3.03;78.48;94478.38;5096979;28;1941;-46
2022/01/06 00:27:56;;;;;;;;;;;;;;;3.18;78.34;94487.63;5097077;28;1132;-46
2022/01/06 00:30:26;;;;;;;;;;;;;;;3.21;79.86;94487.38;5096489;28;928;-46
2022/01/06 00:32:52;;;;;;;;;;;;;;;3.03;79.01;94491.59;5097202;28;1105;-46
2022/01/06 00:35:18;;;;;;;;;;;;;;;2.95;79.55;94483.50;5096705;28;1071;-46
2022/01/06 00:37:44;;;;;;;;;;;;;;;3.09;79.97;94491.03;5096595;28;1031;-46
2022/01/06 00:40:10;;;;;;;;;;;;;;;3.17;79.73;94490.38;5096773;28;984;-46
2022/01/06 00:42:37;;;;;;;;;;;;;;;3.08;78.97;94492.88;5096715;28;995;-46
2022/01/06 00:45:03;;;;;;;;;;;;;;;3.16;78.90;94483.44;5096444;28;1035;-46
2022/01/06 00:47:29;;;;;;;;;;;;;;;3.07;78.90;94487.72;5096308;28;1898;-46
2022/01/06 00:49:55;;;;;;;;;;;;;;;2.98;81.02;94492.00;5096413;28;1048;-46
2022/01/06 00:52:21;;;;;;;;;;;;;;;3.07;79.70;94498.28;5096268;28;1079;-46
2022/01/06 00:54:47;;;;;;;;;;;;;;;3.03;79.15;94492.41;5096615;28;984;-46
2022/01/06 00:57:15;;;;;;;;;;;;;;;3.16;79.08;94491.38;5096244;28;1064;-46
2022/01/06 00:59:41;;;;;;;;;;;;;;;3.23;78.94;94497.81;5096450;28;1054;-46
2022/01/06 01:02:07;;;;;;;;;;;;;;;3.30;78.68;94502.44;5096349;28;1067;-46
2022/01/06 01:04:33;;;;;;;;;;;;;;;2.76;77.17;94497.41;5096394;28;1056;-46
2022/01/06 01:06:59;;;;;;;;;;;;;;;2.65;78.88;94500.94;5095911;28;1901;-46
2022/01/06 01:09:25;;;;;;;;;;;;;;;2.87;79.15;94492.91;5096008;28;1261;-46
2022/01/06 01:11:53;;;;;;;;;;;;;;;2.99;78.81;94498.09;5096139;28;957;-46
2022/01/06 01:14:27;;;;;;;;;;;;;;;2.89;79.02;94498.88;5096064;28;971;-46
2022/01/06 01:16:57;;;;;;;;;;;;;;;2.84;78.20;94502.88;5095617;28;1987;-46
2022/01/06 01:19:23;;;;;;;;;;;;;;;2.77;78.44;94494.66;5096086;28;889;-46
2022/01/06 01:21:50;;;;;;;;;;;;;;;2.77;79.65;94480.59;5096137;28;1058;-46
2022/01/06 01:24:16;;;;;;;;;;;;;;;2.67;79.37;94469.97;5096040;28;1066;-46
2022/01/06 01:26:42;;;;;;;;;;;;;;;2.47;79.21;94471.69;5095926;28;1905;-46
2022/01/06 01:29:19;;;;;;;;;;;;;;;2.61;79.87;94473.97;5095395;28;976;-46
2022/01/06 01:31:55;;;;;;;;;;;;;;;2.74;79.98;94486.97;5095854;28;979;-46
2022/01/06 01:34:25;;;;;;;;;;;;;;;2.70;80.60;94475.00;5095835;28;976;-46
2022/01/06 01:36:51;;;;;;;;;;;;;;;2.60;80.45;94480.25;5095727;28;1026;-46
2022/01/06 01:39:18;;;;;;;;;;;;;;;2.65;81.47;94472.75;5095784;28;976;-48
2022/01/06 01:41:44;;;;;;;;;;;;;;;2.77;80.15;94470.03;5094194;28;1020;-46
2022/01/06 01:44:15;;;;;;;;;;;;;;;2.75;79.90;94470.16;5095360;28;1028;-46
2022/01/06 01:46:44;;;;;;;;;;;;;;;2.74;79.66;94458.78;5095145;28;1902;-46
2022/01/06 01:51:41;;;;;;;;;;;;;;;2.56;79.83;94470.88;5095479;28;1027;-46
2022/01/06 01:54:07;;;;;;;;;;;;;;;2.56;80.02;94475.31;5095316;28;1046;-46
2022/01/06 01:56:33;;;;;;;;;;;;;;;2.52;80.69;94467.69;5095187;28;1048;-46
2022/01/06 01:58:59;;;;;;;;;;;;;;;2.55;81.52;94474.50;5095265;28;1081;-46
2022/01/06 02:01:25;;;;;;;;;;;;;;;2.63;80.88;94487.03;5095111;28;1012;-46
2022/01/06 02:03:51;;;;;;;;;;;;;;;2.60;80.67;94482.88;5095209;28;981;-46
2022/01/06 02:06:18;;;;;;;;;;;;;;;2.59;79.81;94480.34;5094841;28;1906;-46
2022/01/06 02:08:44;;;;;;;;;;;;;;;2.69;81.01;94481.25;5095223;28;984;-46
2022/01/06 02:11:11;;;;;;;;;;;;;;;2.69;80.44;94479.47;5094898;28;1068;-46
2022/01/06 02:13:50;;;;;;;;;;;;;;;2.78;80.13;94483.09;5094768;28;1071;-46
2022/01/06 02:16:20;;;;;;;;;;;;;;;2.80;80.11;94481.19;5094628;28;1231;-47
2022/01/06 02:18:47;;;;;;;;;;;;;;;2.56;79.24;94480.59;5094881;28;972;-46
2022/01/06 02:21:13;;;;;;;;;;;;;;;2.23;78.45;94480.66;5094946;28;985;-47
2022/01/06 02:23:39;;;;;;;;;;;;;;;2.02;79.49;94487.72;5094824;28;1079;-46
2022/01/06 02:26:05;;;;;;;;;;;;;;;2.23;80.28;94488.56;5094537;28;1981;-46
2022/01/06 02:28:31;;;;;;;;;;;;;;;2.17;80.42;94486.44;5094425;28;999;-46
2022/01/06 02:30:58;;;;;;;;;;;;;;;2.04;80.44;94489.25;5094671;28;976;-46
2022/01/06 02:33:24;;;;;;;;;;;;;;;1.94;80.97;94488.34;5094755;28;1038;-46
2022/01/06 02:35:51;;;;;;;;;;;;;;;1.97;80.75;94485.44;5094563;28;993;-46
2022/01/06 02:38:17;;;;;;;;;;;;;;;2.18;80.27;94492.53;5094443;28;975;-46
2022/01/06 02:40:44;;;;;;;;;;;;;;;2.00;79.55;94495.72;5093479;28;997;-46
2022/01/06 02:43:13;;;;;;;;;;;;;;;1.98;79.89;94487.13;5094148;28;1298;-46
2022/01/06 02:45:40;;;;;;;;;;;;;;;1.88;79.69;94491.47;5094014;28;1902;-46
2022/01/06 02:48:08;;;;;;;;;;;;;;;1.91;80.50;94492.03;5094389;28;1045;-46
2022/01/06 02:50:36;;;;;;;;;;;;;;;1.84;80.02;94492.66;5094463;28;1078;-46
2022/01/06 02:53:02;;;;;;;;;;;;;;;1.93;81.77;94494.56;5094122;28;965;-46
2022/01/06 02:55:28;;;;;;;;;;;;;;;2.05;80.11;94493.56;5093984;28;999;-46
2022/01/06 02:57:54;;;;;;;;;;;;;;;2.08;80.58;94495.09;5094306;28;1047;-46
2022/01/06 03:00:20;;;;;;;;;;;;;;;2.01;79.81;94499.19;5093903;28;1197;-46
2022/01/06 03:02:47;;;;;;;;;;;;;;;1.86;80.01;94499.50;5093914;28;1020;-46
2022/01/06 03:05:14;;;;;;;;;;;;;;;1.73;80.49;94512.81;5094003;28;985;-46
2022/01/06 03:07:40;;;;;;;;;;;;;;;1.84;79.81;94511.97;5093751;28;1988;-46
2022/01/06 03:10:09;;;;;;;;;;;;;;;1.67;79.73;94521.22;5094049;28;957;-46
2022/01/06 03:12:43;;;;;;;;;;;;;;;1.82;80.96;94513.03;5094128;28;1051;-46
2022/01/06 03:15:10;;;;;;;;;;;;;;;1.85;81.84;94516.25;5093560;28;1208;-47
2022/01/06 03:17:38;;;;;;;;;;;;;;;1.82;80.55;94513.91;5093902;28;1055;-46
2022/01/06 03:20:05;;;;;;;;;;;;;;;1.77;80.57;94512.59;5094004;28;1021;-46
2022/01/06 03:22:31;;;;;;;;;;;;;;;1.71;80.94;94517.38;5093662;28;1094;-46
2022/01/06 03:24:57;;;;;;;;;;;;;;;1.75;80.75;94518.81;5093639;28;961;-46
2022/01/06 03:27:23;;;;;;;;;;;;;;;1.81;80.69;94514.00;5093542;28;2004;-46
2022/01/06 03:29:50;;;;;;;;;;;;;;;1.75;80.62;94517.97;5093816;28;981;-46
2022/01/06 03:32:17;;;;;;;;;;;;;;;1.85;80.24;94513.63;5093562;28;999;-46
2022/01/06 03:34:43;;;;;;;;;;;;;;;1.87;80.93;94519.63;5093875;28;981;-46
2022/01/06 03:37:10;;;;;;;;;;;;;;;1.76;79.71;94511.72;5093567;28;1040;-46
2022/01/06 03:39:36;;;;;;;;;;;;;;;1.62;81.15;94518.13;5093470;28;1051;-46
2022/01/06 03:42:02;;;;;;;;;;;;;;;1.69;81.00;94536.88;5093793;28;958;-46
2022/01/06 03:44:28;;;;;;;;;;;;;;;1.71;80.71;94527.94;5093341;28;1091;-46
2022/01/06 03:46:55;;;;;;;;;;;;;;;1.60;81.81;94521.84;5093487;28;1910;-46
2022/01/06 03:49:21;;;;;;;;;;;;;;;1.68;80.89;94528.16;5093394;28;1028;-46
2022/01/06 03:51:47;;;;;;;;;;;;;;;1.47;81.27;94527.25;5095906;28;973;-46
2022/01/06 03:54:13;;;;;;;;;;;;;;;1.22;81.90;94541.50;5097475;28;957;-46
2022/01/06 03:56:40;;;;;;;;;;;;;;;1.23;81.31;94541.34;5097414;28;1208;-46
2022/01/06 03:59:06;;;;;;;;;;;;;;;1.28;83.80;94539.22;5097604;28;1044;-46
2022/01/06 04:01:33;;;;;;;;;;;;;;;1.41;83.27;94543.53;5097314;28;1040;-46
2022/01/06 04:03:59;;;;;;;;;;;;;;;1.39;81.48;94542.81;5097302;28;1024;-46
2022/01/06 04:06:25;;;;;;;;;;;;;;;1.27;81.53;94547.22;5097451;28;2188;-46
2022/01/06 04:08:52;;;;;;;;;;;;;;;1.25;81.84;94550.00;5097443;28;988;-46
2022/01/06 04:11:18;;;;;;;;;;;;;;;1.29;81.74;94551.44;5097754;28;988;-46
2022/01/06 04:13:44;;;;;;;;;;;;;;;1.27;81.46;94553.34;5096960;28;1118;-46
2022/01/06 04:16:14;;;;;;;;;;;;;;;1.37;81.07;94561.38;5097053;28;1123;-46
2022/01/06 04:18:40;;;;;;;;;;;;;;;1.36;80.15;94571.03;5097342;28;1011;-46
2022/01/06 04:21:07;;;;;;;;;;;;;;;1.46;80.67;94572.97;5096981;28;1117;-45
2022/01/06 04:23:33;;;;;;;;;;;;;;;1.28;79.79;94573.44;5097164;28;972;-46
2022/01/06 04:25:59;;;;;;;;;;;;;;;1.28;80.59;94589.25;5096783;28;1945;-46
2022/01/06 04:28:26;;;;;;;;;;;;;;;1.33;80.77;94587.09;5097086;28;1030;-46
2022/01/06 04:30:52;;;;;;;;;;;;;;;1.37;81.17;94592.97;5096889;28;1051;-46
2022/01/06 04:33:18;;;;;;;;;;;;;;;1.20;79.20;94591.66;5097041;28;1000;-46
2022/01/06 04:35:46;;;;;;;;;;;;;;;1.11;80.54;94593.19;5096613;28;1071;-46
2022/01/06 04:38:12;;;;;;;;;;;;;;;1.11;81.21;94582.66;5096583;28;1965;-46
2022/01/06 04:40:38;;;;;;;;;;;;;;;1.16;82.00;94582.31;5096631;28;1004;-46
2022/01/06 04:43:05;;;;;;;;;;;;;;;1.07;81.60;94581.22;5096623;28;1052;-46
2022/01/06 04:45:31;;;;;;;;;;;;;;;1.13;81.86;94586.00;5096673;28;1910;-46
2022/01/06 04:47:57;;;;;;;;;;;;;;;1.26;80.92;94591.16;5096432;28;1016;-46
2022/01/06 04:50:23;;;;;;;;;;;;;;;1.33;81.10;94583.66;5096414;28;1083;-46
2022/01/06 04:52:49;;;;;;;;;;;;;;;1.30;80.97;94581.25;5096618;28;961;-46
2022/01/06 04:55:15;;;;;;;;;;;;;;;1.36;81.21;94578.13;5096254;28;1013;-46
2022/01/06 04:57:41;;;;;;;;;;;;;;;1.46;81.38;94571.19;5096314;28;1052;-46
2022/01/06 05:00:08;;;;;;;;;;;;;;;1.61;80.76;94582.31;5096545;28;980;-46
2022/01/06 05:02:35;;;;;;;;;;;;;;;1.31;80.08;94575.84;5095530;28;1018;-46
2022/01/06 05:05:02;;;;;;;;;;;;;;;1.21;80.64;94572.25;5096406;28;1048;-46
2022/01/06 05:07:28;;;;;;;;;;;;;;;1.14;81.22;94586.84;5096050;28;1987;-46
2022/01/06 05:09:54;;;;;;;;;;;;;;;1.09;81.53;94587.19;5095971;28;1064;-46
2022/01/06 05:12:20;;;;;;;;;;;;;;;1.14;81.31;94581.59;5095937;28;1103;-46
2022/01/06 05:14:46;;;;;;;;;;;;;;;1.07;81.34;94583.84;5096269;28;1000;-46
2022/01/06 05:17:12;;;;;;;;;;;;;;;1.08;80.97;94582.91;5095779;28;1084;-46
2022/01/06 05:19:38;;;;;;;;;;;;;;;1.20;81.70;94575.84;5095896;28;1854;-46
2022/01/06 05:22:06;;;;;;;;;;;;;;;1.23;81.37;94586.13;5095858;28;1043;-46
2022/01/06 05:24:34;;;;;;;;;;;;;;;1.13;81.33;94595.69;5095731;28;1079;-46
2022/01/06 05:27:00;;;;;;;;;;;;;;;1.07;81.54;94586.47;5095509;28;1985;-46
2022/01/06 05:29:27;;;;;;;;;;;;;;;1.19;80.84;94583.84;5095837;28;1086;-46
2022/01/06 05:31:53;;;;;;;;;;;;;;;1.37;80.29;94582.44;5094550;28;1020;-46
2022/01/06 05:34:19;;;;;;;;;;;;;;;1.30;80.84;94579.44;5095758;28;984;-46
2022/01/06 05:36:45;;;;;;;;;;;;;;;1.30;80.36;94579.44;5095997;28;1058;-46
2022/01/06 05:39:11;;;;;;;;;;;;;;;1.35;80.09;94582.56;5095462;28;1052;-46
2022/01/06 05:41:37;;;;;;;;;;;;;;;1.22;80.55;94587.09;5095446;28;1056;-46
2022/01/06 05:44:03;;;;;;;;;;;;;;;1.06;80.72;94589.22;5095559;28;1011;-46
2022/01/06 05:46:30;;;;;;;;;;;;;;;1.05;80.65;94592.81;5095305;28;1902;-46
2022/01/06 05:48:56;;;;;;;;;;;;;;;1.02;81.22;94593.03;5095221;28;1044;-46
2022/01/06 05:51:22;;;;;;;;;;;;;;;1.04;80.72;94591.13;5095221;28;1079;-46
2022/01/06 05:53:50;;;;;;;;;;;;;;;0.97;80.79;94591.59;5095369;28;965;-46
2022/01/06 05:56:16;;;;;;;;;;;;;;;0.81;81.25;94598.97;5095443;28;1058;-46
2022/01/06 05:58:42;;;;;;;;;;;;;;;0.88;80.78;94605.47;5094996;28;1107;-46
2022/01/06 06:01:08;;;;;;;;;;;;;;;0.94;81.40;94599.72;5095036;28;1039;-46
2022/01/06 06:03:34;;;;;;;;;;;;;;;0.90;80.12;94598.28;5095266;28;1035;-46
2022/01/06 06:06:00;;;;;;;;;;;;;;;0.95;80.72;94609.31;5094840;28;1929;-46
2022/01/06 06:08:26;;;;;;;;;;;;;;;1.00;80.91;94621.28;5095194;28;972;-46
2022/01/06 06:10:53;;;;;;;;;;;;;;;1.11;81.04;94613.41;5094807;28;1084;-46
2022/01/06 06:13:19;;;;;;;;;;;;;;;0.96;80.04;94613.59;5094613;28;1016;-46
2022/01/06 06:15:45;;;;;;;;;;;;;;;1.06;80.34;94610.28;5094717;28;1112;-46
2022/01/06 06:18:12;;;;;;;;;;;;;;;0.99;80.08;94607.28;5094709;28;1020;-46
2022/01/06 06:20:38;;;;;;;;;;;;;;;1.03;80.25;94611.38;5094929;28;1011;-46
2022/01/06 06:23:05;;;;;;;;;;;;;;;1.36;80.49;94607.09;5094893;28;1209;-46
2022/01/06 06:25:31;;;;;;;;;;;;;;;1.35;79.97;94611.53;5094738;28;1983;-46
2022/01/06 06:27:57;;;;;;;;;;;;;;;1.25;78.22;94621.13;5094764;28;1080;-45
2022/01/06 06:30:23;;;;;;;;;;;;;;;1.27;79.99;94616.56;5094747;28;976;-45
2022/01/06 06:32:49;;;;;;;;;;;;;;;1.52;79.61;94612.88;5094694;28;1184;-45
2022/01/06 06:35:15;;;;;;;;;;;;;;;1.81;79.64;94615.00;5094345;28;1329;-47
2022/01/06 06:37:41;;;;;;;;;;;;;;;1.72;78.40;94621.00;5094630;28;1032;-45
2022/01/06 06:40:08;;;;;;;;;;;;;;;1.84;77.87;94611.28;5094491;28;1038;-46
2022/01/06 06:42:34;;;;;;;;;;;;;;;3.14;73.92;94618.28;5094153;28;1047;-46
2022/01/06 06:45:00;;;;;;;;;;;;;;;5.16;67.75;94624.44;5094520;28;1051;-45
2022/01/06 06:47:26;;;;;;;;;;;;;;;7.75;58.00;94616.25;5094188;28;1988;-46
2022/01/06 06:49:55;;;;;;;;;;;;;;;8.50;54.68;94626.28;5094381;28;1973;-46
2022/01/06 06:52:22;;;;;;;;;;;;;;;9.68;51.92;94634.97;5094114;28;1110;-47
2022/01/06 06:54:48;;;;;;;;;;;;;;;10.99;49.15;94631.03;5094093;28;1004;-47
2022/01/06 06:57:14;;;;;;;;;;;;;;;12.29;44.86;94633.69;5094192;28;1068;-47
2022/01/06 06:59:40;;;;;;;;;;;;;;;13.96;41.24;94640.09;5093901;28;1084;-47
2022/01/06 07:02:07;;;;;;;;;;;;;;;14.93;39.01;94641.13;5092764;28;1096;-45
2022/01/06 07:04:33;;;;;;;;;;;;;;;16.24;37.25;94646.19;5093979;28;1173;-45
2022/01/06 07:07:00;;;;;;;;;;;;;;;16.65;35.34;94650.50;5093877;28;1992;-45
2022/01/06 07:09:26;;;;;;;;;;;;;;;16.93;34.72;94647.53;5092754;28;1253;-45
2022/01/06 07:11:53;;;;;;;;;;;;;;;16.54;35.10;94651.13;5093798;28;1380;-45
2022/01/06 07:14:19;;;;;;;;;;;;;;;14.61;39.11;94651.56;5093782;28;1672;-45
2022/01/06 07:16:45;;;;;;;;;;;;;;;12.96;42.33;94650.63;5093756;28;1088;-44
2022/01/06 07:19:11;;;;;;;;;;;;;;;13.36;42.08;94648.44;5094058;28;1060;-44
2022/01/06 07:21:37;;;;;;;;;;;;;;;12.92;42.48;94648.50;5093696;28;1024;-44
2022/01/06 07:24:05;;;;;;;;;;;;;;;10.28;48.99;94647.03;5093685;28;1091;-44
2022/01/06 07:26:31;;;;;;;;;;;;;;;8.25;54.84;94642.13;5093289;28;1984;-44
2022/01/06 07:28:57;;;;;;;;;;;;;;;6.81;59.86;94638.91;5093719;28;978;-43
2022/01/06 07:31:23;;;;;;;;;;;;;;;6.13;62.94;94645.44;5093621;28;1011;-43
2022/01/06 07:33:50;;;;;;;;;;;;;;;5.66;65.32;94632.16;5093786;28;975;-44
2022/01/06 07:36:16;;;;;;;;;;;;;;;5.27;66.90;94638.38;5093790;28;1162;-45
2022/01/06 07:38:42;;;;;;;;;;;;;;;5.15;67.60;94644.81;5093735;28;1007;-45
2022/01/06 07:41:09;;;;;;;;;;;;;;;5.36;68.10;94639.34;5093771;28;981;-46
2022/01/06 07:43:35;;;;;;;;;;;;;;;5.38;68.10;94634.72;5093787;28;979;-45
2022/01/06 07:46:01;;;;;;;;;;;;;;;5.15;68.14;94638.69;5093352;28;1978;-45
2022/01/06 07:48:37;;;;;;;;;;;;;;;5.12;68.91;94631.81;5093432;28;991;-46
2022/01/06 07:51:04;;;;;;;;;;;;;;;5.27;69.45;94627.78;5093686;28;977;-46
2022/01/06 07:53:31;;;;;;;;;;;;;;;5.37;69.72;94638.38;5093441;28;1028;-46
2022/01/06 07:55:58;;;;;;;;;;;;;;;5.39;69.53;94643.53;5092118;28;1119;-45
2022/01/06 07:58:25;;;;;;;;;;;;;;;5.42;71.04;94638.75;5093400;28;1194;-46
2022/01/06 08:00:52;;;;;;;;;;;;;;;5.39;71.13;94649.66;5093567;28;1217;-45
2022/01/06 08:03:20;;;;;;;;;;;;;;;5.38;71.06;94647.97;5093344;28;1184;-46
2022/01/06 08:05:46;;;;;;;;;;;;;;;5.39;71.69;94647.03;5093682;28;1909;-46
2022/01/06 08:08:14;;;;;;;;;;;;;;;5.39;71.31;94648.84;5092054;28;1122;-46
2022/01/06 08:10:42;;;;;;;;;;;;;;;5.61;70.24;94645.84;5091859;28;1037;-46
2022/01/06 08:13:09;;;;;;;;;;;;;;;5.57;71.17;94638.31;5093194;28;1012;-46
2022/01/06 08:15:37;;;;;;;;;;;;;;;5.67;70.56;94636.47;5091857;28;1286;-46
2022/01/06 08:18:04;;;;;;;;;;;;;;;5.70;71.38;94644.16;5093568;28;979;-46
2022/01/06 08:20:31;;;;;;;;;;;;;;;5.88;70.69;94638.97;5093121;28;1048;-46
2022/01/06 08:22:57;;;;;;;;;;;;;;;5.81;71.13;94637.84;5093188;28;1055;-46
2022/01/06 08:25:24;;;;;;;;;;;;;;;5.81;71.64;94635.19;5100118;28;3128;-45
2022/01/06 08:27:50;;;;;;;;;;;;;;;5.86;71.00;94633.78;5093459;28;2991;-46
2022/01/06 08:30:16;;;;;;;;;;;;;;;6.01;70.38;94631.53;5098014;28;3045;-47
2022/01/06 08:32:42;;;;;;;;;;;;;;;6.27;69.67;94637.97;5113679;28;969;-47
2022/01/06 08:35:08;;;;;;;;;;;;;;;6.39;69.47;94642.94;5113353;28;1195;-47
2022/01/06 08:37:35;;;;;;;;;;;;;;;6.65;68.80;94632.44;5113974;28;1055;-46
2022/01/06 08:40:02;;;;;;;;;;;;;;;6.91;68.27;94644.16;5117081;28;1034;-46
2022/01/06 08:42:28;;;;;;;;;;;;;;;7.14;67.35;94642.72;5110572;28;3075;-46
2022/01/06 08:44:54;;;;;;;;;;;;;;;7.27;67.38;94637.00;5096865;28;1048;-46
2022/01/06 08:47:20;;;;;;;;;;;;;;;7.46;67.21;94646.66;5096511;28;1981;-47
2022/01/06 08:49:48;;;;;;;;;;;;;;;7.61;67.01;94642.44;5096498;28;1108;-47
2022/01/06 08:52:15;;;;;;;;;;;;;;;7.80;66.60;94637.91;5096305;28;1108;-46
2022/01/06 08:54:43;;;;;;;;;;;;;;;8.01;66.10;94638.34;5095139;28;1059;-46
2022/01/06 08:57:10;;;;;;;;;;;;;;;8.14;65.60;94639.78;5096529;28;1012;-45
2022/01/06 08:59:37;;;;;;;;;;;;;;;8.37;65.33;94635.53;5096192;28;1185;-46
2022/01/06 09:02:03;;;;;;;;;;;;;;;8.50;65.08;94629.81;5095669;28;1039;-45
2022/01/06 09:04:29;;;;;;;;;;;;;;;8.66;64.55;94641.50;5096355;28;1063;-46
2022/01/06 09:06:55;;;;;;;;;;;;;;;8.93;64.07;94633.22;5097654;28;1906;-46
2022/01/06 09:09:22;;;;;;;;;;;;;;;9.27;63.37;94623.44;5115197;28;1313;-46
2022/01/06 09:11:48;;;;;;;;;;;;;;;9.82;61.96;94622.75;5287071;22;3016;-50
2022/01/06 09:14:14;;;;;;;;;;;;;;;11.89;56.54;94617.00;5060926;28;3002;-50
2022/01/06 09:16:41;;;;;;;;;;;;;;;13.75;51.20;94624.81;5054543;28;3061;-50
2022/01/06 09:19:07;;;;;;;;;;;;;;;14.52;48.87;94626.63;5054897;28;998;-50
2022/01/06 09:21:33;;;;;;;;;;;;;;;14.78;47.93;94627.84;5054392;28;2241;-51
2022/01/06 09:24:01;;;;;;;;;;;;;;;15.43;46.56;94618.31;5016602;28;3036;-51
2022/01/06 09:26:27;;;;;;;;;;;;;;;16.66;43.81;94613.56;5054741;28;1993;-51
2022/01/06 09:28:53;;;;;;;;;;;;;;;18.07;40.86;94609.91;5054572;28;3031;-51
2022/01/06 09:31:20;;;;;;;;;;;;;;;19.88;37.27;94611.41;5054714;28;994;-52
2022/01/06 09:33:46;;;;;;;;;;;;;;;21.26;34.40;94617.31;5054989;28;1224;-52
2022/01/06 09:36:12;;;;;;;;;;;;;;;21.79;33.21;94618.09;5054779;28;962;-52
2022/01/06 09:38:38;;;;;;;;;;;;;;;23.29;30.78;94610.38;5054350;28;1111;-52
2022/01/06 09:41:06;;;;;;;;;;;;;;;23.40;30.60;94612.13;5054283;28;1019;-52
2022/01/06 09:43:33;;;;;;;;;;;;;;;23.86;30.16;94609.13;5054395;28;2312;-52
2022/01/06 09:46:08;;;;;;;;;;;;;;;25.10;28.23;94609.84;5063477;28;1996;-52
2022/01/06 09:48:36;;;;;;;;;;;;;;;26.59;26.58;94603.97;5067739;28;1161;-52
2022/01/06 10:09:22;;;;;;;;;;;;;;;30.15;21.10;94591.78;5131232;27;1636;-48
2022/01/06 10:11:49;;;;;;;;;;;;;;;29.37;22.15;94587.59;5131643;28;1023;-49
2022/01/06 10:14:20;;;;;;;;;;;;;;;28.73;22.68;94576.66;5130914;28;1145;-48
2022/01/06 10:16:50;;;;;;;;;;;;;;;28.49;22.24;94573.00;5131523;27;1989;-48
2022/01/06 10:19:16;;;;;;;;;;;;;;;26.35;25.24;94566.16;5131058;28;2859;-47
2022/01/06 10:21:44;;;;;;;;;;;;;;;22.64;30.04;94566.41;5131382;27;1028;-48
2022/01/06 10:24:14;;;;;;;;;;;;;;;19.64;34.32;94558.97;5130894;27;973;-47
2022/01/06 10:26:58;;;;;;;;;;;;;;;18.59;36.55;94557.38;5131711;27;1047;-47
2022/01/06 10:29:25;;;;;;;;;;;;;;;18.94;36.43;94552.22;5130768;28;1078;-47
2022/01/06 10:31:53;;;;;;;;;;;;;;;21.05;33.36;94556.28;5130865;27;1205;-47
2022/01/06 10:34:20;;;;;;;;;;;;;;;24.99;27.69;94541.72;5135247;27;1135;-48
2022/01/06 10:36:48;;;;;;;;;;;;;;;27.65;24.04;94546.34;5131177;28;1905;-47
2022/01/06 10:39:14;;;;;;;;;;;;;;;29.41;21.91;94541.81;5130786;27;1019;-48
2022/01/06 10:41:40;;;;;;;;;;;;;;;30.01;21.48;94535.78;5147161;27;992;-48
2022/01/06 10:44:09;;;;;;;;;;;;;;;30.47;21.17;94537.03;5130759;28;1043;-48
2022/01/06 10:46:40;;;;;;;;;;;;;;;30.89;20.25;94538.75;5130684;27;1635;-48
2022/01/06 10:49:16;;;;;;;;;;;;;;;31.01;20.06;94527.22;5130596;27;984;-48
2022/01/06 10:51:44;;;;;;;;;;;;;;;30.20;21.65;94521.16;5130639;27;1031;-48
2022/01/06 10:54:16;;;;;;;;;;;;;;;30.18;21.14;94529.72;5130394;27;2955;-48
2022/01/06 10:56:43;;;;;;;;;;;;;;;30.11;20.02;94524.59;5130408;27;1905;-47
2022/01/06 10:59:09;;;;;;;;;;;;;;;29.08;20.75;94518.78;5130042;27;1997;-47
2022/01/06 11:01:36;;;;;;;;;;;;;;;26.93;23.20;94508.22;5130697;27;1046;-48
2022/01/06 11:04:02;;;;;;;;;;;;;;;23.99;25.89;94502.22;5130279;27;984;-47
2022/01/06 11:06:29;;;;;;;;;;;;;;;22.14;27.90;94499.19;5130650;27;1228;-48
2022/01/06 11:08:56;;;;;;;;;;;;;;;21.26;29.83;94500.41;5123856;27;1182;-47
2022/01/06 11:11:32;;;;;;;;;;;;;;;20.60;30.08;94485.53;5115348;28;1052;-47
2022/01/06 11:13:58;;;;;;;;;;;;;;;20.28;31.11;94491.34;5116322;28;1048;-47
2022/01/06 11:16:24;;;;;;;;;;;;;;;20.07;31.24;94488.16;5116456;28;969;-47
2022/01/06 11:18:56;;;;;;;;;;;;;;;19.69;30.98;94481.28;5116201;28;1910;-47
2022/01/06 11:21:42;;;;;;;;;;;;;;;19.75;31.68;94476.00;5116672;28;1056;-47
2022/01/06 11:24:11;;;;;;;;;;;;;;;19.96;31.75;94478.13;5116290;27;972;-48
2022/01/06 11:26:37;;;;;;;;;;;;;;;19.66;31.52;94465.47;5116576;28;992;-48
2022/01/06 11:29:03;;;;;;;;;;;;;;;19.46;31.92;94471.22;5115749;28;1143;-48
2022/01/06 11:31:35;;;;;;;;;;;;;;;19.36;32.34;94465.53;5116095;28;1020;-48
2022/01/06 11:34:13;;;;;;;;;;;;;;;19.19;32.41;94465.38;5116120;28;1036;-47
2022/01/06 11:36:39;;;;;;;;;;;;;;;19.00;32.49;94461.91;5116405;28;1910;-47
2022/01/06 11:39:07;;;;;;;;;;;;;;;18.75;33.60;94456.59;5116085;28;1068;-48
2022/01/06 11:41:34;;;;;;;;;;;;;;;18.44;34.32;94463.88;5115978;28;1060;-48
2022/01/06 11:44:02;;;;;;;;;;;;;;;18.24;35.25;94457.84;5115909;28;972;-47
2022/01/06 11:46:40;;;;;;;;;;;;;;;18.10;34.48;94465.28;5114898;28;988;-50
2022/01/06 11:49:06;;;;;;;;;;;;;;;17.98;35.30;94454.38;5116004;28;980;-48
2022/01/06 11:51:34;;;;;;;;;;;;;;;17.93;34.72;94456.94;5115856;28;1051;-48
2022/01/06 11:54:11;;;;;;;;;;;;;;;17.79;35.08;94455.38;5115683;28;3128;-48
2022/01/06 11:56:51;;;;;;;;;;;;;;;17.69;35.69;94455.88;5115956;28;1978;-48
2022/01/06 11:59:31;;;;;;;;;;;;;;;17.48;36.06;94452.53;5115788;28;1000;-48
2022/01/06 12:01:57;;;;;;;;;;;;;;;17.34;35.33;94440.19;5115439;27;1984;-48
2022/01/06 12:04:24;;;;;;;;;;;;;;;17.43;36.61;94448.81;5115754;28;929;-47
2022/01/06 12:06:50;;;;;;;;;;;;;;;17.53;35.60;94458.09;5115472;28;1153;-49
2022/01/06 12:09:23;;;;;;;;;;;;;;;17.33;35.78;94447.44;5115795;28;988;-48
2022/01/06 12:12:18;;;;;;;;;;;;;;;17.28;36.64;94443.75;5115727;28;1052;-47
2022/01/06 12:14:44;;;;;;;;;;;;;;;17.08;36.09;94443.91;5102398;28;1309;-48
2022/01/06 12:17:11;;;;;;;;;;;;;;;17.03;36.45;94447.25;5115304;28;1910;-48
2022/01/06 12:19:37;;;;;;;;;;;;;;;17.06;36.99;94444.13;5115249;28;1036;-48
2022/01/06 12:22:08;;;;;;;;;;;;;;;16.98;36.44;94441.69;5114465;28;1048;-48
2022/01/06 12:24:35;;;;;;;;;;;;;;;16.86;37.32;94455.03;5115617;28;968;-48
2022/01/06 12:27:04;;;;;;;;;;;;;;;16.75;36.50;94434.09;5115026;28;1045;-47
2022/01/06 12:29:33;;;;;;;;;;;;;;;16.75;36.49;94453.84;5114970;28;984;-49
2022/01/06 12:32:03;;;;;;;;;;;;;;;16.59;36.82;94452.47;5115153;28;1077;-54
2022/01/06 12:34:29;;;;;;;;;;;;;;;16.47;37.21;94456.88;5115072;28;928;-49
2022/01/06 12:36:55;;;;;;;;;;;;;;;16.44;37.28;94454.59;5115010;28;1914;-48
2022/01/06 12:39:22;;;;;;;;;;;;;;;16.38;37.17;94461.69;5115230;28;1064;-48
2022/01/06 12:41:49;;;;;;;;;;;;;;;16.36;37.54;94462.94;5114840;28;1116;-48
2022/01/06 12:44:27;;;;;;;;;;;;;;;16.32;37.00;94459.84;5114866;28;1045;-48
2022/01/06 12:46:53;;;;;;;;;;;;;;;16.23;37.83;94465.69;5113966;28;1036;-48
2022/01/06 12:49:21;;;;;;;;;;;;;;;16.15;37.84;94462.19;5114469;28;956;-47
2022/01/06 12:51:48;;;;;;;;;;;;;;;16.07;37.84;94472.38;5112814;28;2881;-48
2022/01/06 12:54:17;;;;;;;;;;;;;;;15.99;37.70;94473.44;5093812;28;1031;-48
2022/01/06 12:56:53;;;;;;;;;;;;;;;15.95;37.93;94477.59;5092486;28;1909;-48
2022/01/06 12:59:24;;;;;;;;;;;;;;;15.83;38.36;94474.72;5092606;28;1040;-47
2022/01/06 13:01:54;;;;;;;;;;;;;;;15.75;38.04;94473.06;5093957;28;1020;-48
2022/01/06 13:04:26;;;;;;;;;;;;;;;15.69;38.21;94473.03;5093812;28;1052;-48
2022/01/06 13:06:54;;;;;;;;;;;;;;;15.64;38.14;94475.53;5105738;28;1237;-48
2022/01/06 13:09:21;;;;;;;;;;;;;;;15.54;38.00;94474.09;5112164;28;1049;-48
2022/01/06 13:11:51;;;;;;;;;;;;;;;15.57;38.45;94486.31;5114042;28;1032;-48
2022/01/06 13:14:29;;;;;;;;;;;;;;;15.57;38.71;94484.44;5113021;28;1218;-48
2022/01/06 13:17:04;;;;;;;;;;;;;;;15.53;38.42;94477.00;5114019;28;1909;-48
2022/01/06 13:19:31;;;;;;;;;;;;;;;15.48;39.34;94476.78;5113488;28;948;-48
2022/01/06 13:22:02;;;;;;;;;;;;;;;15.37;38.77;94470.19;5113987;28;1036;-48
2022/01/06 13:24:29;;;;;;;;;;;;;;;15.32;39.60;94473.47;5114156;28;1042;-48
2022/01/06 13:27:00;;;;;;;;;;;;;;;15.32;39.50;94480.72;5113835;28;1131;-48
2022/01/06 13:29:30;;;;;;;;;;;;;;;15.33;39.17;94485.09;5113980;28;921;-48
2022/01/06 13:32:02;;;;;;;;;;;;;;;15.33;39.03;94483.22;5113569;28;1041;-48
2022/01/06 13:34:29;;;;;;;;;;;;;;;15.32;38.87;94484.25;5113985;28;1020;-48
2022/01/06 13:37:01;;;;;;;;;;;;;;;15.29;39.13;94490.06;5113549;28;1897;-48
2022/01/06 13:39:36;;;;;;;;;;;;;;;15.25;39.54;94493.34;5113901;28;1055;-48